ドバイ の空港の天気 - METARとTAF

ドバイ国際空港 ( OMDB / DXB ) - アラブ首長国連邦 ドバイ
飛行場実況気象(Metar)
観測時間07/28 16:00 GST (07/28 12:00 UTC)
風向・風速北西 7m/s
視程6000m
天気現象
なし
気温40℃
湿度45%
気圧998hPa
METAROMDB 281200Z 31014KT 6000 NSC 40/26 Q0998 NOSIG
過去の天気等 Google飛行場航空写真 Wunderground天気予報

過去48時間のMETAR

飛行場予報(TAF)
発表時間: 7/28 14:55 GST (7/28 10:55 UTC)
予報対象時間: 28日16時 GST ~ 29日22時 GST
風向・風速北北西 6m/s
視程6,000m
なし
28日20時 GST ~ 28日22時 GST に徐々に
風向・風速北東 3m/s
29日5時 GST から 確率 30% で
視程4,000m
天気現象煙霧
29日11時 GST ~ 29日13時 GST に徐々に
風向・風速北西 7m/s
29日20時 GST ~ 29日22時 GST に徐々に
風向・風速東 3m/s
TAF OMDB 281055Z 2812/2918 33012KT 6000 NSC
BECMG 2816/2818 04005KT
PROB30 2901/2904 4000 HZ
BECMG 2907/2909 32013KT
BECMG 2916/2918 08005KT